^^
Meteo Knjazevac Station Historical Data
Daily Summary for August 16, 2022 Units:  Metric    English   Both
Daily Weekly Monthly Yearly Custom
  High: Low: Average:
Temperature: 32.2 °C 16.6 °C 23.6 °C
Dew Point: 21.4 °C 16.4 °C 18.8 °C
Humidity: 99% 45% 78%
Wind Speed: 25.1km/h 0.5km/h 10.1km/h
Wind Gust: 29km/h - -
Wind- - SSW
Pressure: 1014.8 hPa 1012.1 hPa -
Precipitation: 2.54 mm    
Historical Graphs
 
 
Tabular Data for August 16, 2022
Time Temperature Dew Point Pressure Wind Wind Speed Wind Gust Humidity Rainfall Rate (Hourly) solar Conditions
00:04 17.6 °C 16.9 °C 1012.8 hPa West 4.8 km/h 4.8 km/h 96% 0 mm 0 W/m2
00:09 17.4 °C 16.8 °C 1012.8 hPa West 3.4 km/h 4.8 km/h 96% 0 mm 0 W/m2
00:14 17.4 °C 16.8 °C 1012.8 hPa WSW 2.3 km/h 4.8 km/h 96% 0 mm 0 W/m2
00:19 17.3 °C 16.7 °C 1012.8 hPa WSW 4.3 km/h 4 km/h 96% 0 mm 0 W/m2
00:24 17.2 °C 16.6 °C 1012.8 hPa WSW 5.8 km/h 4.8 km/h 96% 0 mm 0 W/m2
00:29 17.1 °C 16.7 °C 1012.8 hPa WSW 6.8 km/h 8 km/h 97.5% 0 mm 0 W/m2
00:34 16.9 °C 16.6 °C 1012.8 hPa WSW 5.6 km/h 8 km/h 98% 0 mm 0 W/m2
00:39 16.9 °C 16.6 °C 1012.8 hPa WSW 6.6 km/h 8 km/h 98% 0 mm 0 W/m2
00:44 16.8 °C 16.5 °C 1012.8 hPa WSW 6.4 km/h 8 km/h 98% 0 mm 0 W/m2
00:49 16.7 °C 16.5 °C 1012.8 hPa West 6.8 km/h 8 km/h 98.5% 0 mm 0 W/m2
00:54 16.6 °C 16.4 °C 1012.8 hPa WSW 5.8 km/h 8 km/h 98.9% 0 mm 0 W/m2
00:59 16.6 °C 16.4 °C 1012.8 hPa West 6.8 km/h 5.8 km/h 99% 0 mm 0 W/m2
01:04 16.6 °C 16.4 °C 1012.8 hPa West 7.4 km/h 8 km/h 99% 0 mm 0 W/m2
01:09 16.6 °C 16.4 °C 1012.8 hPa West 7.1 km/h 8 km/h 99% 0 mm 0 W/m2
01:14 16.6 °C 16.4 °C 1012.8 hPa West 5.8 km/h 8 km/h 99% 0 mm 0 W/m2
01:19 16.7 °C 16.5 °C 1012.8 hPa West 5.8 km/h 8 km/h 99% 0 mm 0 W/m2
01:24 16.7 °C 16.6 °C 1012.8 hPa West 6.6 km/h 6.4 km/h 99% 0 mm 0 W/m2
01:29 16.8 °C 16.7 °C 1012.8 hPa West 7.1 km/h 8 km/h 99% 0 mm 0 W/m2
01:34 16.8 °C 16.7 °C 1013.8 hPa West 13 km/h 14.8 km/h 99% 0 mm 0 W/m2
01:39 16.8 °C 16.7 °C 1013.8 hPa West 18 km/h 20.9 km/h 99% 0 mm 0 W/m2
01:44 17 °C 16.8 °C 1013.4 hPa West 10 km/h 20.9 km/h 99% 0 mm 0 W/m2
01:49 17.3 °C 17.1 °C 1013.8 hPa WSW 7.2 km/h 11.3 km/h 98.3% 0 mm 0 W/m2
01:54 17.4 °C 17.1 °C 1013.4 hPa South 5.3 km/h 9.7 km/h 98% 0 mm 0 W/m2
01:59 17.6 °C 17.2 °C 1013.4 hPa ENE 6.8 km/h 6.4 km/h 98% 0 mm 0 W/m2
02:04 17.7 °C 17.4 °C 1013.4 hPa NE 7.9 km/h 8 km/h 98% 0 mm 0 W/m2
02:09 17.7 °C 17.4 °C 1013.4 hPa NE 10.1 km/h 11.3 km/h 98% 0 mm 0 W/m2
02:14 17.8 °C 17.5 °C 1013.4 hPa NE 6.1 km/h 11.3 km/h 97.8% 0 mm 0 W/m2
02:19 17.9 °C 17.3 °C 1013.1 hPa East 4.5 km/h 3.5 km/h 96% 0 mm 0 W/m2
02:24 18.2 °C 17.6 °C 1013.4 hPa East 5 km/h 4.8 km/h 96% 0 mm 0 W/m2
02:29 18.5 °C 17.7 °C 1013.4 hPa ESE 4.5 km/h 6.4 km/h 95.1% 0 mm 0 W/m2
02:34 18.6 °C 17.8 °C 1013.4 hPa SE 5.5 km/h 6.4 km/h 95% 0 mm 0 W/m2
02:38 18.5 °C 17.7 °C 1013.4 hPa SSE 7.1 km/h 8 km/h 95% 0 mm 0 W/m2
02:44 18.6 °C 17.8 °C 1013.4 hPa SSW 8.4 km/h 9.7 km/h 95.2% 0.51 mm 0 W/m2
02:49 18.7 °C 18.1 °C 1013.4 hPa SSW 8.7 km/h 11.3 km/h 96% 1.02 mm 0 W/m2
02:54 18.8 °C 18.2 °C 1013.4 hPa SSW 8.5 km/h 9.7 km/h 96% 1.27 mm 0 W/m2
02:59 18.8 °C 18.2 °C 1013.4 hPa South 7.7 km/h 11.3 km/h 96% 1.52 mm 0 W/m2
03:04 18.9 °C 18.3 °C 1013.4 hPa South 10.5 km/h 9.7 km/h 96% 1.78 mm 0 W/m2
03:08 19 °C 18.3 °C 1013.1 hPa SSE 13 km/h 14.5 km/h 96% 1.78 mm 0 W/m2
03:14 19 °C 18.4 °C 1013.4 hPa SE 6.6 km/h 14.5 km/h 96.4% 2.03 mm 0 W/m2
03:19 18.9 °C 18.6 °C 1013.8 hPa ENE 7.4 km/h 5.5 km/h 98% 2.03 mm 0 W/m2
03:24 18.8 °C 18.5 °C 1013.8 hPa NNE 8.2 km/h 8 km/h 98% 2.03 mm 0 W/m2
03:29 18.8 °C 18.6 °C 1013.8 hPa ENE 10.1 km/h 11.3 km/h 98.3% 2.03 mm 0 W/m2
03:34 18.8 °C 18.6 °C 1013.8 hPa ESE 11.9 km/h 11.3 km/h 99% 2.03 mm 0 W/m2
03:38 18.8 °C 18.6 °C 1013.8 hPa SE 15 km/h 12.9 km/h 99% 2.03 mm 0 W/m2
03:43 18.8 °C 18.7 °C 1013.8 hPa SE 19.3 km/h 19.3 km/h 99% 1.78 mm 0 W/m2
03:49 18.9 °C 18.6 °C 1013.8 hPa SE 20.3 km/h 27.4 km/h 98% 1.52 mm 0 W/m2
03:54 19.1 °C 18.7 °C 1013.8 hPa SE 17.5 km/h 11.9 km/h 98% 1.02 mm 0 W/m2
03:59 19.1 °C 18.7 °C 1013.8 hPa SSE 11.4 km/h 19.3 km/h 98% 0.76 mm 0 W/m2
04:04 18.9 °C 18.6 °C 1013.8 hPa South 11.1 km/h 6.8 km/h 98% 0.51 mm 0 W/m2
04:08 18.8 °C 18.6 °C 1013.8 hPa SSW 10 km/h 16.1 km/h 98.5% 0.25 mm 0 W/m2
04:14 18.8 °C 18.7 °C 1013.8 hPa WSW 7.7 km/h 11.3 km/h 98.9% 0.25 mm 0 W/m2
04:19 18.8 °C 18.7 °C 1013.8 hPa WSW 5.6 km/h 8 km/h 99% 0 mm 0 W/m2
04:24 18.7 °C 18.6 °C 1013.8 hPa SW 5.5 km/h 6.4 km/h 99% 0 mm 0 W/m2
04:29 18.7 °C 18.6 °C 1013.8 hPa SSW 8.4 km/h 6.4 km/h 99% 0 mm 0 W/m2
04:34 18.7 °C 18.6 °C 1013.8 hPa South 5.6 km/h 11.3 km/h 99% 0 mm 0 W/m2
04:39 18.7 °C 18.5 °C 1013.8 hPa SSW 6.1 km/h 6.4 km/h 98.8% 0 mm 0 W/m2
04:44 18.7 °C 18.4 °C 1013.8 hPa SSW 5.5 km/h 8 km/h 98.1% 0 mm 0 W/m2
04:49 18.7 °C 18.4 °C 1013.8 hPa SSE 4.7 km/h 6.4 km/h 98.2% 0 mm 0 W/m2
04:54 18.7 °C 18.5 °C 1013.8 hPa SE 4.8 km/h 6.4 km/h 98.8% 0 mm 0 W/m2
04:59 18.6 °C 18.4 °C 1013.8 hPa SSE 6.3 km/h 5 km/h 99% 0 mm 0 W/m2
05:04 18.5 °C 18.3 °C 1013.8 hPa South 4.5 km/h 8 km/h 99% 0 mm 0 W/m2
05:08 18.4 °C 18.3 °C 1013.8 hPa SSW 4 km/h 6.4 km/h 99% 0 mm 0 W/m2
05:14 18.4 °C 18.2 °C 1013.8 hPa South 7.6 km/h 6.4 km/h 99% 0 mm 0 W/m2
05:19 18.4 °C 18.2 °C 1013.8 hPa ESE 5 km/h 4 km/h 99% 0 mm 0 W/m2
05:24 18.4 °C 18.2 °C 1013.8 hPa ESE 4.7 km/h 4.8 km/h 99% 0 mm 0 W/m2
05:29 18.4 °C 18.2 °C 1013.8 hPa SSE 5.1 km/h 4.8 km/h 99% 0 mm 1 W/m2
05:34 18.3 °C 18.2 °C 1013.8 hPa SSE 5.5 km/h 6.4 km/h 99% 0 mm 2 W/m2
05:39 18.3 °C 18.2 °C 1013.8 hPa SE 4.7 km/h 2.6 km/h 99% 0 mm 4 W/m2
05:44 18.3 °C 18.1 °C 1013.8 hPa SSE 3.5 km/h 3.5 km/h 99% 0 mm 7 W/m2
05:49 18.2 °C 18.1 °C 1013.8 hPa West 3.4 km/h 4.8 km/h 99% 0 mm 9 W/m2
05:54 18.2 °C 18 °C 1013.8 hPa WSW 4.3 km/h 4.8 km/h 99% 0 mm 14 W/m2
05:59 18.1 °C 17.9 °C 1014.1 hPa SW 6.4 km/h 5.8 km/h 99% 0 mm 19 W/m2
06:04 17.9 °C 17.7 °C 1014.1 hPa South 7.7 km/h 8 km/h 99% 0 mm 28 W/m2
06:09 17.8 °C 17.7 °C 1014.1 hPa South 6.3 km/h 9.7 km/h 99% 0 mm 39 W/m2
06:14 17.8 °C 17.7 °C 1014.1 hPa WSW 4.5 km/h 8 km/h 99% 0 mm 40 W/m2
06:19 17.8 °C 17.7 °C 1014.1 hPa NW 4.2 km/h 2.6 km/h 99% 0 mm 40 W/m2
06:24 17.8 °C 17.7 °C 1014.1 hPa WNW 6.1 km/h 6.4 km/h 99% 0 mm 39 W/m2
06:29 17.9 °C 17.7 °C 1014.1 hPa South 5.3 km/h 8 km/h 99% 0 mm 36 W/m2
06:34 18.1 °C 17.9 °C 1014.1 hPa SSE 5.3 km/h 6.4 km/h 99% 0 mm 24 W/m2
06:39 18.1 °C 17.9 °C 1014.1 hPa SE 3.9 km/h 4.8 km/h 99% 0 mm 24 W/m2
06:44 18.2 °C 18.1 °C 1014.1 hPa SE 9.8 km/h 11.3 km/h 99% 0 mm 23 W/m2
06:48 18.3 °C 18.2 °C 1014.1 hPa SE 7.7 km/h 11.3 km/h 99% 0 mm 22 W/m2
06:54 18.4 °C 18.2 °C 1014.1 hPa SSE 8.2 km/h 9.7 km/h 99% 0 mm 30 W/m2
06:59 18.5 °C 18.3 °C 1014.1 hPa SSE 11.9 km/h 11.3 km/h 99% 0 mm 43 W/m2
07:04 18.6 °C 18.4 °C 1014.1 hPa SSE 11.7 km/h 14.5 km/h 99% 0 mm 54 W/m2
07:09 18.7 °C 18.5 °C 1014.1 hPa SSE 7.6 km/h 12.9 km/h 99% 0 mm 67 W/m2
07:14 18.7 °C 18.6 °C 1014.1 hPa SSE 1.6 km/h 8 km/h 99% 0 mm 84 W/m2
07:19 18.8 °C 18.7 °C 1013.8 hPa South 6.9 km/h 6.1 km/h 99% 0 mm 112 W/m2
07:24 18.9 °C 18.6 °C 1013.8 hPa SE 7.7 km/h 11.3 km/h 98.2% 0 mm 118 W/m2
07:29 19.1 °C 18.7 °C 1013.8 hPa SE 7.6 km/h 8 km/h 98% 0 mm 170 W/m2
07:34 19.2 °C 18.7 °C 1013.8 hPa SE 7.1 km/h 9.7 km/h 97.2% 0 mm 115 W/m2
07:39 19.3 °C 18.7 °C 1013.8 hPa SSE 5.6 km/h 2.1 km/h 96.4% 0 mm 86 W/m2
07:44 19.4 °C 18.7 °C 1013.8 hPa ESE 7.2 km/h 5.8 km/h 96% 0 mm 92 W/m2
07:49 19.5 °C 18.8 °C 1014.1 hPa East 9.2 km/h 11.3 km/h 96% 0 mm 93 W/m2
07:54 19.6 °C 18.8 °C 1014.1 hPa ESE 7.2 km/h 9.7 km/h 95.2% 0 mm 103 W/m2
07:59 19.6 °C 18.8 °C 1014.1 hPa SE 9.3 km/h 9.7 km/h 95% 0 mm 124 W/m2
08:04 19.7 °C 18.8 °C 1014.1 hPa SSE 6.6 km/h 11.3 km/h 94.3% 0 mm 243 W/m2
08:09 19.8 °C 18.9 °C 1014.1 hPa SSE 6.4 km/h 4.7 km/h 94% 0 mm 309 W/m2
08:14 20 °C 18.9 °C 1014.1 hPa SE 5.5 km/h 8 km/h 93.9% 0 mm 360 W/m2
08:19 20.2 °C 19.1 °C 1014.1 hPa SE 6.9 km/h 6.4 km/h 93% 0 mm 365 W/m2
08:24 20.4 °C 19.2 °C 1013.8 hPa ESE 10.5 km/h 11.3 km/h 93% 0 mm 390 W/m2
08:29 20.8 °C 19.4 °C 1013.8 hPa ESE 10.9 km/h 11.3 km/h 92.2% 0 mm 410 W/m2
08:34 21.2 °C 19.4 °C 1013.8 hPa ESE 9.8 km/h 12.9 km/h 90.1% 0 mm 429 W/m2
08:39 21.4 °C 19.6 °C 1013.8 hPa ESE 9.3 km/h 11.3 km/h 89.1% 0 mm 443 W/m2
08:44 21.8 °C 19.6 °C 1013.8 hPa ESE 9.2 km/h 11.3 km/h 87.6% 0 mm 465 W/m2
08:49 21.9 °C 19.6 °C 1013.8 hPa ESE 8.5 km/h 11.3 km/h 86.4% 0 mm 479 W/m2
08:54 22.3 °C 19.8 °C 1013.8 hPa ESE 7.2 km/h 9.7 km/h 85.8% 0 mm 487 W/m2
08:59 22.6 °C 19.9 °C 1013.8 hPa SE 7.7 km/h 9.7 km/h 84.8% 0 mm 487 W/m2
09:04 22.7 °C 19.9 °C 1013.8 hPa SE 9.3 km/h 9.7 km/h 84% 0 mm 525 W/m2
09:08 23 °C 20 °C 1013.8 hPa ESE 9.8 km/h 6.4 km/h 83.3% 0 mm 525 W/m2
09:14 23.3 °C 20 °C 1013.8 hPa ESE 7.2 km/h 9.7 km/h 81.5% 0 mm 541 W/m2
09:19 23.6 °C 19.9 °C 1013.8 hPa SE 6.6 km/h 8 km/h 80.3% 0 mm 566 W/m2
09:24 23.8 °C 20.1 °C 1013.8 hPa SSE 7.4 km/h 8 km/h 79.9% 0 mm 590 W/m2
09:29 24.1 °C 20.2 °C 1013.8 hPa SE 7.2 km/h 9.7 km/h 79.3% 0 mm 600 W/m2
09:34 24.4 °C 20.4 °C 1013.8 hPa SE 11.6 km/h 7.9 km/h 78.5% 0 mm 603 W/m2
09:39 24.5 °C 20.6 °C 1013.8 hPa SE 6.6 km/h 12.9 km/h 78.7% 0 mm 616 W/m2
09:44 24.8 °C 20.7 °C 1013.8 hPa SE 12.2 km/h 7.9 km/h 78.1% 0 mm 631 W/m2
09:49 24.8 °C 20.7 °C 1013.4 hPa SE 8.9 km/h 12.9 km/h 77.7% 0 mm 662 W/m2
09:54 25 °C 20.6 °C 1013.4 hPa SE 9.5 km/h 7.2 km/h 76.8% 0 mm 673 W/m2
09:59 25.2 °C 20.8 °C 1013.4 hPa SE 10.1 km/h 12.9 km/h 76.4% 0 mm 677 W/m2
10:04 25.6 °C 21.2 °C 1013.4 hPa South 8.2 km/h 12.9 km/h 77% 0 mm 687 W/m2
10:09 26 °C 21.4 °C 1013.4 hPa SSW 9.3 km/h 9.7 km/h 75.7% 0 mm 704 W/m2
10:14 26.4 °C 21.2 °C 1013.4 hPa SSW 8.9 km/h 11.3 km/h 73.4% 0 mm 729 W/m2
10:19 26.7 °C 21.2 °C 1013.4 hPa SSW 11.7 km/h 11.3 km/h 71.6% 0 mm 729 W/m2
10:24 27 °C 20.9 °C 1013.4 hPa SSW 14.5 km/h 12.9 km/h 69.4% 0 mm 740 W/m2
10:27 27.2 °C 20.7 °C 1013.4 hPa SSW 19.5 km/h 13.7 km/h 68% 0 mm 756 W/m2
10:34 27.3 °C 20.9 °C 1013.4 hPa SW 17.7 km/h 20.9 km/h 68.2% 0 mm 761 W/m2
10:39 27.4 °C 20.8 °C 1013.4 hPa SW 19 km/h 24.1 km/h 67.5% 0 mm 778 W/m2
10:44 27.4 °C 20.9 °C 1013.4 hPa SW 19.5 km/h 24.1 km/h 67.8% 0 mm 778 W/m2
10:49 27.4 °C 20.9 °C 1013.4 hPa SW 18.5 km/h 20.9 km/h 67.9% 0 mm 758 W/m2
10:54 27.6 °C 21.1 °C 1013.4 hPa SW 14.3 km/h 19.3 km/h 67.5% 0 mm 741 W/m2
10:59 27.8 °C 21.1 °C 1013.4 hPa SSW 17.4 km/h 19.3 km/h 66.7% 0 mm 741 W/m2
11:03 27.8 °C 20.9 °C 1013.4 hPa SSW 17.7 km/h 19.3 km/h 65.9% 0 mm 668 W/m2
11:08 28 °C 20.7 °C 1013.4 hPa SSW 22 km/h 19.3 km/h 64.8% 0 mm 537 W/m2
11:14 28.1 °C 20.7 °C 1013.4 hPa SSW 18.2 km/h 24.1 km/h 64.3% 0 mm 366 W/m2
11:19 28.3 °C 20.8 °C 1013.4 hPa SSW 19.6 km/h 20.9 km/h 64% 0 mm 174 W/m2
11:24 28.4 °C 20.9 °C 1013.4 hPa SW 18.5 km/h 20.9 km/h 64% 0 mm 148 W/m2
11:29 28.6 °C 21.1 °C 1013.4 hPa SW 15 km/h 20.9 km/h 63.7% 0 mm 249 W/m2
11:34 28.8 °C 21.1 °C 1013.4 hPa SW 16.4 km/h 17.7 km/h 62.9% 0 mm 379 W/m2
11:39 29.1 °C 20.9 °C 1013.4 hPa SSW 15.3 km/h 20.9 km/h 61.4% 0 mm 650 W/m2
11:44 29.3 °C 20.4 °C 1013.1 hPa SSW 15.9 km/h 12.6 km/h 59% 0 mm 888 W/m2
11:49 29.3 °C 20.3 °C 1013.1 hPa SW 15.1 km/h 19.3 km/h 58.4% 0 mm 895 W/m2
11:54 29.4 °C 20.5 °C 1013.1 hPa SSW 14 km/h 14.5 km/h 58.7% 0 mm 897 W/m2
11:59 29.7 °C 20.6 °C 1013.1 hPa SSW 13.5 km/h 20.9 km/h 58.2% 0 mm 903 W/m2
12:04 29.9 °C 20.7 °C 1013.1 hPa SW 15.9 km/h 16.1 km/h 57.9% 0 mm 905 W/m2
12:09 29.9 °C 20.7 °C 1013.1 hPa SW 14 km/h 19.3 km/h 57.5% 0 mm 913 W/m2
12:14 30 °C 20.6 °C 1012.8 hPa SW 14.6 km/h 16.1 km/h 57% 0 mm 919 W/m2
12:19 30.2 °C 20.6 °C 1012.8 hPa SW 16.4 km/h 14 km/h 56.6% 0 mm 924 W/m2
12:24 30.2 °C 20.3 °C 1012.8 hPa SW 16.7 km/h 20.9 km/h 55.4% 0 mm 932 W/m2
12:29 30.3 °C 20.3 °C 1012.8 hPa SW 18.7 km/h 19.3 km/h 55% 0 mm 937 W/m2
12:34 30.4 °C 20.3 °C 1012.8 hPa SW 20.3 km/h 22.5 km/h 54.8% 0 mm 928 W/m2
12:39 30.4 °C 20 °C 1012.8 hPa SW 19.2 km/h 22.5 km/h 53.9% 0 mm 932 W/m2
12:44 30.4 °C 19.8 °C 1012.8 hPa SW 19.2 km/h 14.8 km/h 52.9% 0 mm 922 W/m2
12:49 30.5 °C 20.1 °C 1012.8 hPa SW 19.8 km/h 20.9 km/h 53.7% 0 mm 859 W/m2
12:54 30.4 °C 19.8 °C 1012.8 hPa SW 20.4 km/h 20.9 km/h 52.9% 0 mm 599 W/m2
12:59 30.3 °C 19.4 °C 1012.8 hPa SW 25.1 km/h 25.7 km/h 52.3% 0 mm 892 W/m2
13:04 30.2 °C 19.3 °C 1012.8 hPa SW 23.7 km/h 27.4 km/h 52% 0 mm 944 W/m2
13:09 30.2 °C 19.3 °C 1012.8 hPa SW 22.2 km/h 27.4 km/h 52.4% 0 mm 1087 W/m2
13:14 30.4 °C 19.6 °C 1012.8 hPa SW 20.8 km/h 24.1 km/h 52.6% 0 mm 1035 W/m2
13:19 30.6 °C 19.7 °C 1012.8 hPa SW 22.7 km/h 22.5 km/h 52.3% 0 mm 1039 W/m2
13:23 30.7 °C 19.7 °C 1012.8 hPa SW 17.5 km/h 25.7 km/h 52% 0 mm 1007 W/m2
13:29 30.9 °C 19.8 °C 1012.8 hPa SW 21.6 km/h 24.1 km/h 51.6% 0 mm 957 W/m2
13:34 31 °C 19.4 °C 1012.8 hPa SW 18.8 km/h 24.1 km/h 50.2% 0 mm 948 W/m2
13:39 31.1 °C 19.7 °C 1012.8 hPa SW 20.8 km/h 20.9 km/h 51% 0.25 mm 953 W/m2
13:43 31 °C 19.1 °C 1012.8 hPa SW 20.8 km/h 25.7 km/h 49.2% 0.25 mm 942 W/m2
13:49 30.9 °C 19.4 °C 1012.8 hPa SSW 16.3 km/h 20.9 km/h 50.2% 0.25 mm 953 W/m2
13:54 31.3 °C 19.7 °C 1012.8 hPa SSW 17.5 km/h 20.9 km/h 50.1% 0.25 mm 945 W/m2
13:59 31.4 °C 19.3 °C 1012.8 hPa SSW 21.2 km/h 22.5 km/h 48.6% 0.25 mm 922 W/m2
14:04 31.4 °C 19.3 °C 1012.8 hPa SSW 19.6 km/h 22.5 km/h 48.9% 0.25 mm 890 W/m2
14:09 31.3 °C 19 °C 1012.8 hPa SSW 21.4 km/h 22.5 km/h 48% 0.25 mm 869 W/m2
14:14 31.3 °C 19.3 °C 1012.4 hPa SW 22.9 km/h 16.3 km/h 49% 0.25 mm 876 W/m2
14:19 31.4 °C 19.1 °C 1012.4 hPa SW 23.7 km/h 18 km/h 48.1% 0.25 mm 873 W/m2
14:24 31.4 °C 18.7 °C 1012.4 hPa SW 24.3 km/h 29 km/h 47% 0.25 mm 852 W/m2
14:29 31.5 °C 18.4 °C 1012.4 hPa SW 23.7 km/h 27.4 km/h 45.8% 0.25 mm 839 W/m2
14:34 31.4 °C 18.7 °C 1012.4 hPa SW 23.8 km/h 27.4 km/h 46.8% 0.25 mm 803 W/m2
14:39 31.4 °C 19 °C 1012.4 hPa SW 17.4 km/h 25.7 km/h 47.8% 0.25 mm 839 W/m2
14:44 31.5 °C 19.4 °C 1012.4 hPa SW 18 km/h 22.5 km/h 48.8% 0.25 mm 788 W/m2
14:49 31.7 °C 19.2 °C 1012.4 hPa WSW 18.3 km/h 20.9 km/h 47.6% 0.25 mm 796 W/m2
14:54 31.7 °C 18.7 °C 1012.4 hPa SW 20.8 km/h 22.5 km/h 46.1% 0.25 mm 776 W/m2
14:59 31.8 °C 19.4 °C 1012.4 hPa WSW 16.7 km/h 22.5 km/h 47.7% 0.25 mm 767 W/m2
15:04 32 °C 19.9 °C 1012.4 hPa WSW 12.2 km/h 19.3 km/h 48.8% 0.25 mm 751 W/m2
15:09 32.1 °C 19.8 °C 1012.1 hPa SW 17.5 km/h 15.1 km/h 48.3% 0.25 mm 738 W/m2
15:14 32.2 °C 18.9 °C 1012.1 hPa WSW 17.5 km/h 13.4 km/h 45.4% 0.25 mm 731 W/m2
15:19 32.1 °C 18.9 °C 1012.1 hPa WSW 19.3 km/h 19.3 km/h 45.7% 0.25 mm 714 W/m2
15:24 31.8 °C 19.4 °C 1012.1 hPa SW 17.4 km/h 14.3 km/h 47.7% 0.25 mm 630 W/m2
15:28 31.8 °C 19.2 °C 1012.1 hPa SW 19 km/h 17.7 km/h 47.4% 0.25 mm 716 W/m2
15:34 31.8 °C 18.9 °C 1012.1 hPa SW 19.8 km/h 24.1 km/h 46.5% 0 mm 689 W/m2
15:39 31.8 °C 18.8 °C 1012.1 hPa SW 17.4 km/h 22.5 km/h 46.1% 0 mm 601 W/m2
15:44 31.6 °C 18.4 °C 1012.1 hPa SW 19.6 km/h 20.9 km/h 45.4% 0 mm 549 W/m2
15:49 31.5 °C 18.6 °C 1012.1 hPa SW 18 km/h 24.1 km/h 46.4% 0 mm 636 W/m2
15:54 31.6 °C 18.6 °C 1012.1 hPa SW 21.4 km/h 24.1 km/h 46% 0 mm 606 W/m2
15:59 31.4 °C 18.1 °C 1012.1 hPa SW 19.2 km/h 24.1 km/h 45% 0 mm 393 W/m2
16:04 31.2 °C 18.7 °C 1012.1 hPa SW 16.3 km/h 22.5 km/h 47.3% 0 mm 262 W/m2
16:09 30.9 °C 18.6 °C 1012.4 hPa SW 21.2 km/h 20.9 km/h 47.8% 0 mm 191 W/m2
16:13 30.7 °C 18.5 °C 1012.4 hPa SW 18.8 km/h 22.5 km/h 48.2% 0 mm 187 W/m2
16:19 30.4 °C 18.3 °C 1012.4 hPa WSW 19.5 km/h 16.6 km/h 48.2% 0 mm 183 W/m2
16:24 30.3 °C 18.3 °C 1012.4 hPa WSW 16.4 km/h 20.9 km/h 48.8% 0 mm 174 W/m2
16:29 30.1 °C 18.3 °C 1012.4 hPa WSW 18 km/h 13.4 km/h 49.2% 0 mm 161 W/m2
16:34 29.9 °C 18.4 °C 1012.4 hPa SW 13.8 km/h 20.9 km/h 50.1% 0 mm 162 W/m2
16:39 29.8 °C 18.9 °C 1012.4 hPa SW 10.5 km/h 16.1 km/h 52% 0 mm 165 W/m2
16:44 29.7 °C 18.8 °C 1012.4 hPa SW 15.6 km/h 12.6 km/h 52% 0 mm 166 W/m2
16:49 29.6 °C 18.9 °C 1012.4 hPa SW 14.8 km/h 16.1 km/h 52.9% 0 mm 165 W/m2
16:54 29.5 °C 18.9 °C 1012.4 hPa SW 14.5 km/h 17.7 km/h 53% 0 mm 158 W/m2
16:59 29.3 °C 18.8 °C 1012.4 hPa SW 15.9 km/h 17.7 km/h 53% 0 mm 144 W/m2
17:04 29.2 °C 18.9 °C 1012.4 hPa SW 22.4 km/h 19.3 km/h 54% 0 mm 130 W/m2
17:09 28.8 °C 19.1 °C 1012.8 hPa SW 21.2 km/h 24.1 km/h 55.4% 0 mm 117 W/m2
17:14 28.6 °C 19.3 °C 1012.8 hPa SW 19.5 km/h 24.1 km/h 57% 0 mm 108 W/m2
17:19 28.3 °C 19.2 °C 1012.8 hPa SW 20 km/h 22.5 km/h 57.9% 0 mm 103 W/m2
17:24 28 °C 19.1 °C 1012.8 hPa SW 19 km/h 22.5 km/h 58.5% 0 mm 101 W/m2
17:28 27.8 °C 19.1 °C 1012.8 hPa SW 18.7 km/h 20.9 km/h 59% 0 mm 100 W/m2
17:34 27.7 °C 19.1 °C 1012.8 hPa SW 15 km/h 20.9 km/h 59.4% 0 mm 101 W/m2
17:39 27.6 °C 19.1 °C 1012.8 hPa SW 13.8 km/h 16.1 km/h 60% 0 mm 101 W/m2
17:44 27.5 °C 19.1 °C 1012.8 hPa SW 13.2 km/h 14.5 km/h 60.2% 0 mm 101 W/m2
17:48 27.4 °C 19.4 °C 1012.8 hPa SW 12.2 km/h 14.5 km/h 61.7% 0 mm 97 W/m2
17:54 27.3 °C 19.4 °C 1012.8 hPa SW 11.9 km/h 14.5 km/h 62% 0 mm 91 W/m2
17:59 27.3 °C 19.4 °C 1012.8 hPa SW 10 km/h 12.9 km/h 62.2% 0 mm 90 W/m2
18:04 27.2 °C 19.5 °C 1012.8 hPa SW 8.4 km/h 11.3 km/h 62.7% 0 mm 140 W/m2
18:09 27.2 °C 19.6 °C 1012.8 hPa SW 9.7 km/h 9.7 km/h 63% 0 mm 209 W/m2
18:14 27.4 °C 19.7 °C 1012.8 hPa SW 10.8 km/h 11.3 km/h 62.8% 0 mm 211 W/m2
18:18 27.6 °C 19.7 °C 1012.8 hPa SW 11.9 km/h 12.9 km/h 62% 0 mm 208 W/m2
18:24 27.7 °C 19.7 °C 1012.8 hPa SW 8.7 km/h 12.9 km/h 61.8% 0 mm 193 W/m2
18:28 27.9 °C 19.9 °C 1012.8 hPa SW 9.2 km/h 9.7 km/h 62% 0 mm 178 W/m2
18:34 27.9 °C 19.6 °C 1012.8 hPa SW 10.1 km/h 11.3 km/h 60.7% 0 mm 162 W/m2
18:39 27.8 °C 19.5 °C 1012.8 hPa SW 9.2 km/h 11.3 km/h 60.6% 0 mm 137 W/m2
18:44 27.8 °C 19.8 °C 1012.4 hPa SW 7.6 km/h 11.3 km/h 61.8% 0 mm 116 W/m2
18:49 27.8 °C 19.8 °C 1012.4 hPa SW 9.5 km/h 6.8 km/h 62% 0 mm 99 W/m2
18:59 27.6 °C 19.7 °C 1012.4 hPa SW 6.1 km/h 8 km/h 62.2% 0 mm 59 W/m2
19:04 27.4 °C 19.8 °C 1012.8 hPa SW 6.3 km/h 8 km/h 63% 0 mm 46 W/m2
19:09 27.3 °C 19.7 °C 1012.8 hPa SW 3.1 km/h 8 km/h 63% 0 mm 35 W/m2
19:14 27.2 °C 19.9 °C 1012.8 hPa WSW 1.8 km/h 3.2 km/h 64.3% 0 mm 26 W/m2
19:18 27.1 °C 20.2 °C 1012.8 hPa West 1.8 km/h 3.2 km/h 66.3% 0 mm 20 W/m2
19:24 26.8 °C 20.2 °C 1012.8 hPa WSW 1.1 km/h 1.6 km/h 67.2% 0 mm 14 W/m2
19:29 26.6 °C 20.2 °C 1012.8 hPa WSW 0.6 km/h 1.6 km/h 68% 0 mm 9 W/m2
19:33 26.3 °C 19.9 °C 1012.8 hPa WSW 1.1 km/h 1.6 km/h 68% 0 mm 6 W/m2
19:39 26 °C 19.8 °C 1012.8 hPa NW 1.9 km/h 3.2 km/h 68.9% 0 mm 3 W/m2
19:44 25.7 °C 19.8 °C 1012.8 hPa NNE 1.8 km/h 3.2 km/h 69.7% 0 mm 2 W/m2
19:49 25.5 °C 19.6 °C 1012.8 hPa ESE 3.2 km/h 2.1 km/h 70% 0 mm 0 W/m2
19:54 25.2 °C 19.4 °C 1013.1 hPa SSW 3.7 km/h 3.2 km/h 70% 0 mm 0 W/m2
19:59 25 °C 19.7 °C 1013.1 hPa SSW 3.5 km/h 3.2 km/h 72.3% 0 mm 0 W/m2
20:04 24.7 °C 19.7 °C 1013.1 hPa SW 4.2 km/h 4.8 km/h 73.6% 0 mm 0 W/m2
20:09 24.4 °C 19.6 °C 1013.4 hPa SW 3.7 km/h 4.8 km/h 74.4% 0 mm 0 W/m2
20:13 24.2 °C 19.8 °C 1013.4 hPa SW 3.4 km/h 4.8 km/h 76.3% 0 mm 0 W/m2
20:19 23.9 °C 19.7 °C 1013.4 hPa SW 3.5 km/h 2.1 km/h 77.2% 0 mm 0 W/m2
20:24 23.8 °C 19.6 °C 1013.4 hPa SW 2.4 km/h 3.2 km/h 77.5% 0 mm 0 W/m2
20:29 23.6 °C 19.6 °C 1013.8 hPa SSW 2.7 km/h 2.1 km/h 78% 0 mm 0 W/m2
20:34 23.4 °C 19.4 °C 1013.8 hPa SW 3.1 km/h 4.3 km/h 78.3% 0 mm 0 W/m2
20:39 23.2 °C 19.2 °C 1013.8 hPa SSW 5 km/h 6.4 km/h 78% 0 mm 0 W/m2
20:44 23.1 °C 19 °C 1013.8 hPa South 3.5 km/h 4.8 km/h 78% 0 mm 0 W/m2
20:49 22.9 °C 18.9 °C 1013.8 hPa SSW 3.5 km/h 4.8 km/h 78% 0 mm 0 W/m2
20:54 22.8 °C 18.9 °C 1013.8 hPa SSW 3.4 km/h 3.2 km/h 78.8% 0 mm 0 W/m2
20:59 22.6 °C 18.7 °C 1013.8 hPa SSW 4.8 km/h 3.2 km/h 79% 0 mm 0 W/m2
21:04 22.4 °C 18.6 °C 1013.8 hPa SSW 5.8 km/h 8 km/h 79% 0 mm 0 W/m2
21:09 22.2 °C 18.7 °C 1013.8 hPa South 3.9 km/h 6.4 km/h 80.2% 0 mm 0 W/m2
21:14 22.2 °C 18.9 °C 1013.8 hPa SSW 2.1 km/h 3.2 km/h 82.3% 0 mm 0 W/m2
21:19 21.9 °C 18.7 °C 1013.8 hPa SSW 2.3 km/h 3.2 km/h 81.9% 0 mm 0 W/m2
21:23 21.8 °C 18.8 °C 1013.8 hPa SSW 5.5 km/h 5.5 km/h 82.6% 0 mm 0 W/m2
21:29 21.7 °C 18.3 °C 1014.1 hPa South 5.8 km/h 4.3 km/h 81% 0 mm 0 W/m2
21:34 21.6 °C 18.2 °C 1014.1 hPa SSE 2.7 km/h 6.4 km/h 81% 0 mm 0 W/m2
21:39 21.6 °C 18.2 °C 1014.1 hPa SSE 2.7 km/h 4.8 km/h 81% 0 mm 0 W/m2
21:44 21.5 °C 18.4 °C 1014.1 hPa ESE 1.4 km/h 3.2 km/h 82.5% 0 mm 0 W/m2
21:49 21.3 °C 18.4 °C 1014.1 hPa North 1.6 km/h 3.2 km/h 83.3% 0 mm 0 W/m2
21:54 21.2 °C 18.3 °C 1014.1 hPa North 2.1 km/h 3.2 km/h 83.5% 0 mm 0 W/m2
21:59 21.1 °C 18.2 °C 1014.1 hPa North 1.8 km/h 3.2 km/h 84% 0 mm 0 W/m2
22:04 20.9 °C 18.1 °C 1014.1 hPa NNW 0.8 km/h 1.6 km/h 84% 0 mm 0 W/m2
22:09 20.8 °C 18.1 °C 1014.1 hPa North 3.1 km/h 3.2 km/h 84.1% 0 mm 0 W/m2
22:14 20.7 °C 17.9 °C 1014.1 hPa ESE 2.6 km/h 3.2 km/h 84.2% 0 mm 0 W/m2
22:19 20.6 °C 18 °C 1014.4 hPa ENE 1.8 km/h 3.2 km/h 85% 0 mm 0 W/m2
22:24 20.5 °C 18.1 °C 1014.4 hPa NNW 0.5 km/h 1.6 km/h 86.4% 0 mm 0 W/m2
22:29 20.3 °C 18.3 °C 1014.4 hPa West 0.6 km/h 1.6 km/h 88% 0 mm 0 W/m2
22:34 20.2 °C 18.2 °C 1014.4 hPa NNE 1.9 km/h 1.8 km/h 88% 0 mm 0 W/m2
22:39 20.1 °C 18.2 °C 1014.4 hPa NNW 2.3 km/h 2.6 km/h 88.8% 0 mm 0 W/m2
22:44 19.9 °C 18.1 °C 1014.4 hPa West 2.4 km/h 3.2 km/h 89% 0 mm 0 W/m2
22:49 19.7 °C 17.8 °C 1014.4 hPa West 3.2 km/h 3.2 km/h 89.2% 0 mm 0 W/m2
22:54 19.5 °C 17.8 °C 1014.4 hPa NW 1.3 km/h 3.2 km/h 90% 0 mm 0 W/m2
22:59 19.4 °C 17.7 °C 1014.4 hPa WNW 1.9 km/h 0.6 km/h 90% 0 mm 0 W/m2
23:04 19.3 °C 17.8 °C 1014.4 hPa West 3.2 km/h 3.2 km/h 90.8% 0 mm 0 W/m2
23:08 19.2 °C 17.7 °C 1014.4 hPa NW 4 km/h 3.2 km/h 91% 0 mm 0 W/m2
23:14 19.1 °C 17.6 °C 1014.4 hPa NW 4.8 km/h 6.4 km/h 90.8% 0 mm 0 W/m2
23:18 19.2 °C 17.6 °C 1014.4 hPa SW 5.8 km/h 4 km/h 90.4% 0 mm 0 W/m2
23:24 19 °C 17.5 °C 1014.8 hPa West 4.8 km/h 4.8 km/h 91% 0 mm 0 W/m2
23:29 18.8 °C 17.3 °C 1014.8 hPa WNW 3.4 km/h 4.8 km/h 91% 0 mm 0 W/m2
23:34 18.7 °C 17.2 °C 1014.8 hPa West 3.1 km/h 3.2 km/h 91% 0 mm 0 W/m2
23:39 18.5 °C 17.2 °C 1014.8 hPa WNW 4.2 km/h 4.8 km/h 92% 0 mm 0 W/m2
23:44 18.4 °C 17.2 °C 1014.8 hPa WNW 4.8 km/h 4.8 km/h 93% 0 mm 0 W/m2
23:49 18.3 °C 17.1 °C 1014.8 hPa NW 5.3 km/h 6.4 km/h 93% 0 mm 0 W/m2
23:54 18.2 °C 17 °C 1014.8 hPa NW 4 km/h 4.8 km/h 93% 0 mm 0 W/m2
23:59 18.1 °C 16.9 °C 1014.8 hPa NW 4.2 km/h 4 km/h 93.5% 0 mm 0 W/m2
Knjazevac, Serbia
Compliments of Weather Underground - 4 mb